createdAt,value
2018-02-08T00:00:57.699Z,99411
2018-02-08T00:03:27.426Z,99409
2018-02-08T00:05:58.118Z,99407
2018-02-08T00:08:28.412Z,99418
2018-02-08T00:10:58.515Z,99430
2018-02-08T00:13:28.347Z,99424
2018-02-08T00:15:58.828Z,99394
2018-02-08T00:18:29.273Z,99393
2018-02-08T00:20:59.721Z,99409
2018-02-08T00:23:31.163Z,99394
2018-02-08T00:26:01.053Z,99374
2018-02-08T00:28:31.477Z,99377
2018-02-08T00:31:01.491Z,99366
2018-02-08T00:33:31.828Z,99385
2018-02-08T00:36:02.201Z,99384
2018-02-08T00:38:32.423Z,99378
2018-02-08T00:41:02.767Z,99383
2018-02-08T00:43:33.370Z,99381
2018-02-08T00:46:03.507Z,99377
2018-02-08T00:48:33.987Z,99365
2018-02-08T00:51:04.188Z,99369
2018-02-08T00:53:34.969Z,99368
2018-02-08T00:56:05.641Z,99380
2018-02-08T00:58:36.438Z,99399
2018-02-08T01:01:06.850Z,99390
2018-02-08T01:03:36.727Z,99373
2018-02-08T01:06:07.360Z,99379
2018-02-08T01:08:37.660Z,99390
2018-02-08T01:11:07.934Z,99404
2018-02-08T01:13:38.438Z,99396
2018-02-08T01:16:08.782Z,99398
2018-02-08T01:18:39.513Z,99396
2018-02-08T01:21:10.582Z,99404
2018-02-08T01:23:40.901Z,99408
2018-02-08T01:26:11.444Z,99410
2018-02-08T01:28:41.250Z,99432
2018-02-08T01:31:11.679Z,99443
2018-02-08T01:33:41.889Z,99459
2018-02-08T01:36:12.396Z,99458
2018-02-08T01:38:42.543Z,99460
2018-02-08T01:41:12.322Z,99461
2018-02-08T01:43:42.694Z,99446
2018-02-08T01:46:13.077Z,99451
2018-02-08T01:48:43.563Z,99470
2018-02-08T01:51:13.557Z,99450
2018-02-08T01:53:43.402Z,99458
2018-02-08T01:56:13.441Z,99444
2018-02-08T01:58:43.245Z,99419
2018-02-08T02:01:12.990Z,99383
2018-02-08T02:03:43.457Z,99382
2018-02-08T02:06:14.236Z,99371
2018-02-08T02:08:44.106Z,99355
2018-02-08T02:11:14.444Z,99341
2018-02-08T02:13:44.496Z,99321
2018-02-08T02:16:15.332Z,99307
2018-02-08T02:18:45.703Z,99293
2018-02-08T02:21:16.351Z,99273
2018-02-08T02:23:46.095Z,99263
2018-02-08T02:26:16.544Z,99276
2018-02-08T02:28:47.013Z,99308
2018-02-08T02:31:17.384Z,99306
2018-02-08T02:33:47.832Z,99306
2018-02-08T02:36:18.504Z,99291
2018-02-08T02:38:48.544Z,99262
2018-02-08T02:41:19.237Z,99239
2018-02-08T02:43:49.301Z,99260
2018-02-08T02:46:20.715Z,99306
2018-02-08T02:48:50.828Z,99330
2018-02-08T02:51:20.688Z,99334
2018-02-08T02:53:51.116Z,99329
2018-02-08T02:56:21.451Z,99316
2018-02-08T02:58:51.973Z,99334
2018-02-08T03:01:22.611Z,99354
2018-02-08T03:03:53.181Z,99355
2018-02-08T03:06:23.501Z,99347
2018-02-08T03:08:53.396Z,99350
2018-02-08T03:11:23.723Z,99335
2018-02-08T03:13:54.133Z,99303
2018-02-08T03:16:24.449Z,99287
2018-02-08T03:18:54.935Z,99298
2018-02-08T03:21:25.229Z,99315
2018-02-08T03:23:55.676Z,99310
2018-02-08T03:26:25.951Z,99293
2018-02-08T03:28:58.091Z,99262
2018-02-08T03:31:28.408Z,99225
2018-02-08T03:33:59.669Z,99242
2018-02-08T03:36:30.144Z,99298
2018-02-08T03:39:00.411Z,99318
2018-02-08T03:41:30.791Z,99312
2018-02-08T03:44:00.587Z,99315
2018-02-08T03:46:30.533Z,99303
2018-02-08T03:49:00.810Z,99293
2018-02-08T03:51:31.044Z,99305
2018-02-08T03:54:01.224Z,99310
2018-02-08T03:56:31.841Z,99298
2018-02-08T03:59:02.455Z,99284
2018-02-08T04:01:32.741Z,99299
2018-02-08T04:04:02.954Z,99315
2018-02-08T04:06:33.344Z,99309
2018-02-08T04:09:03.216Z,99324
2018-02-08T04:11:33.328Z,99328
2018-02-08T04:14:03.746Z,99328
2018-02-08T04:16:34.017Z,99330
2018-02-08T04:19:04.657Z,99324
2018-02-08T04:21:35.240Z,99330
2018-02-08T04:24:05.622Z,99329
2018-02-08T04:26:35.778Z,99336
2018-02-08T04:29:06.050Z,99325
2018-02-08T04:31:36.412Z,99320
2018-02-08T04:34:06.839Z,99322
2018-02-08T04:36:36.921Z,99327
2018-02-08T04:39:18.782Z,99334
2018-02-08T04:42:00.688Z,99341
2018-02-08T04:44:42.624Z,99346
2018-02-08T04:47:27.287Z,99345
2018-02-08T04:49:57.241Z,99351
2018-02-08T04:52:27.688Z,99344
2018-02-08T04:54:58.113Z,99348
2018-02-08T04:57:28.427Z,99361
2018-02-08T04:59:59.107Z,99372
2018-02-08T05:02:29.202Z,99377
2018-02-08T05:04:59.315Z,99370
2018-02-08T05:07:29.789Z,99380
2018-02-08T05:09:59.838Z,99390
2018-02-08T05:12:30.083Z,99391
2018-02-08T05:14:59.908Z,99394
2018-02-08T05:17:29.613Z,99389
2018-02-08T05:19:59.440Z,99397
2018-02-08T05:22:29.196Z,99385
2018-02-08T05:24:59.029Z,99385
2018-02-08T05:27:28.963Z,99393
2018-02-08T05:29:58.750Z,99405
2018-02-08T05:32:28.481Z,99412
2018-02-08T05:34:58.170Z,99408
2018-02-08T05:37:27.890Z,99413
2018-02-08T05:39:57.655Z,99402
2018-02-08T05:42:27.409Z,99392
2018-02-08T05:44:57.163Z,99403
2018-02-08T05:47:26.887Z,99401
2018-02-08T05:49:56.629Z,99408
2018-02-08T05:52:26.418Z,99417
2018-02-08T05:54:56.113Z,99417
2018-02-08T05:57:25.858Z,99425
2018-02-08T05:59:55.645Z,99425
2018-02-08T06:02:25.413Z,99418
2018-02-08T06:04:55.237Z,99418
2018-02-08T06:07:25.001Z,99416
2018-02-08T06:09:54.774Z,99413
2018-02-08T06:12:24.537Z,99409
2018-02-08T06:14:54.272Z,99408
2018-02-08T06:17:24.046Z,99414
2018-02-08T06:19:53.805Z,99413
2018-02-08T06:22:23.576Z,99411
2018-02-08T06:24:53.303Z,99406
2018-02-08T06:27:23.077Z,99407
2018-02-08T06:29:52.832Z,99412
2018-02-08T06:32:22.572Z,99406
2018-02-08T06:34:52.259Z,99406
2018-02-08T06:37:22.077Z,99410
2018-02-08T06:39:51.818Z,99408
2018-02-08T06:42:21.621Z,99406
2018-02-08T06:44:51.373Z,99410
2018-02-08T06:47:21.095Z,99415
2018-02-08T06:49:50.909Z,99409
2018-02-08T06:52:20.673Z,99410
2018-02-08T06:54:50.358Z,99407
2018-02-08T06:57:20.096Z,99404
2018-02-08T06:59:49.866Z,99404
2018-02-08T07:02:19.679Z,99400
2018-02-08T07:04:49.454Z,99407
2018-02-08T07:07:19.252Z,99409
2018-02-08T07:09:49.142Z,99404
2018-02-08T07:12:18.914Z,99411
2018-02-08T07:14:48.605Z,99416
2018-02-08T07:17:18.470Z,99412
2018-02-08T07:19:51.285Z,99409
2018-02-08T07:22:21.092Z,99401
2018-02-08T07:24:50.879Z,99410
2018-02-08T07:27:20.704Z,99405
2018-02-08T07:29:50.454Z,99395
2018-02-08T07:32:20.273Z,99388
2018-02-08T07:34:50.046Z,99392
2018-02-08T07:37:19.745Z,99391
2018-02-08T07:39:49.549Z,99386
2018-02-08T07:44:55.158Z,99399
2018-02-08T07:47:24.950Z,99399
2018-02-08T07:49:54.694Z,99387
2018-02-08T07:52:24.550Z,99397
2018-02-08T07:54:54.439Z,99388
2018-02-08T07:57:24.161Z,99381
2018-02-08T07:59:53.899Z,99385
2018-02-08T08:02:23.648Z,99387
2018-02-08T08:04:53.426Z,99380
2018-02-08T08:07:23.249Z,99383
2018-02-08T08:09:52.982Z,99379
2018-02-08T08:12:22.863Z,99386
2018-02-08T08:14:52.568Z,99382
2018-02-08T08:17:22.453Z,99376
2018-02-08T08:19:52.277Z,99373
2018-02-08T08:22:22.048Z,99372
2018-02-08T08:24:51.864Z,99371
2018-02-08T08:27:21.623Z,99363
2018-02-08T08:29:51.404Z,99369
2018-02-08T08:32:21.208Z,99370
2018-02-08T08:34:50.889Z,99364
2018-02-08T08:37:20.582Z,99374
2018-02-08T08:39:50.447Z,99373
2018-02-08T08:42:20.192Z,99373
2018-02-08T08:44:49.939Z,99373
2018-02-08T08:47:19.684Z,99368
2018-02-08T08:49:49.487Z,99370
2018-02-08T08:52:19.211Z,99367
2018-02-08T08:54:48.991Z,99360
2018-02-08T08:57:18.738Z,99353
2018-02-08T08:59:48.490Z,99348
2018-02-08T09:02:18.331Z,99344
2018-02-08T09:04:48.158Z,99343
2018-02-08T09:07:17.913Z,99346
2018-02-08T09:09:47.654Z,99347
2018-02-08T09:12:17.368Z,99356
2018-02-08T09:14:47.116Z,99351
2018-02-08T09:17:16.835Z,99343
2018-02-08T09:19:46.656Z,99343
2018-02-08T09:22:16.415Z,99337
2018-02-08T09:24:46.207Z,99325
2018-02-08T09:27:15.963Z,99322
2018-02-08T09:29:45.768Z,99322
2018-02-08T09:32:15.610Z,99316
2018-02-08T09:34:45.358Z,99320
2018-02-08T09:37:15.078Z,99317
2018-02-08T09:39:44.845Z,99316
2018-02-08T09:42:14.649Z,99305
2018-02-08T09:44:44.325Z,99307
2018-02-08T09:47:14.191Z,99300
2018-02-08T09:49:43.963Z,99302
2018-02-08T09:52:13.691Z,99306
2018-02-08T09:54:43.404Z,99305
2018-02-08T09:57:13.126Z,99294
2018-02-08T09:59:46.319Z,99288
2018-02-08T10:02:16.064Z,99284
2018-02-08T10:04:45.863Z,99283
2018-02-08T10:07:15.714Z,99288
2018-02-08T10:09:45.493Z,99277
2018-02-08T10:12:15.254Z,99274
2018-02-08T10:14:44.955Z,99272
2018-02-08T10:17:14.710Z,99275
2018-02-08T10:19:44.521Z,99262
2018-02-08T10:22:14.229Z,99258
2018-02-08T10:24:44.062Z,99256
2018-02-08T10:27:13.846Z,99248
2018-02-08T10:29:43.623Z,99247
2018-02-08T10:32:13.444Z,99251
2018-02-08T10:34:43.143Z,99237
2018-02-08T10:37:12.871Z,99227
2018-02-08T10:39:42.660Z,99226
2018-02-08T10:42:12.406Z,99219
2018-02-08T10:44:42.113Z,99223
2018-02-08T10:47:11.873Z,99220
2018-02-08T10:49:41.737Z,99208
2018-02-08T10:52:11.512Z,99209
2018-02-08T10:54:41.280Z,99204
2018-02-08T10:57:11.009Z,99203
2018-02-08T10:59:40.811Z,99199
2018-02-08T11:02:10.610Z,99190
2018-02-08T11:04:40.377Z,99180
2018-02-08T11:07:10.197Z,99171
2018-02-08T11:09:39.968Z,99167
2018-02-08T11:12:09.759Z,99159
2018-02-08T11:14:39.563Z,99156
2018-02-08T11:17:09.287Z,99161
2018-02-08T11:19:39.084Z,99155
2018-02-08T11:22:08.867Z,99149
2018-02-08T11:24:38.612Z,99148
2018-02-08T11:27:08.400Z,99152
2018-02-08T11:29:38.206Z,99147
2018-02-08T11:32:07.931Z,99154
2018-02-08T11:34:37.682Z,99137
2018-02-08T11:37:07.415Z,99143
2018-02-08T11:39:37.254Z,99133
2018-02-08T11:42:07.084Z,99126
2018-02-08T11:44:36.874Z,99124
2018-02-08T11:47:06.673Z,99113
2018-02-08T11:49:36.496Z,99124
2018-02-08T11:52:06.332Z,99126
2018-02-08T11:54:36.024Z,99131
2018-02-08T11:57:05.727Z,99127
2018-02-08T11:59:35.507Z,99119
2018-02-08T12:02:05.294Z,99106
2018-02-08T12:04:35.095Z,99107
2018-02-08T12:07:04.894Z,99106
2018-02-08T12:09:34.662Z,99106
2018-02-08T12:12:04.472Z,99100
2018-02-08T12:14:34.160Z,99095
2018-02-08T12:17:03.893Z,99091
2018-02-08T12:19:33.656Z,99099
2018-02-08T12:22:03.521Z,99101
2018-02-08T12:24:33.337Z,99089
2018-02-08T12:27:03.143Z,99085
2018-02-08T12:29:32.990Z,99076
2018-02-08T12:32:02.741Z,99076
2018-02-08T12:34:32.440Z,99070
2018-02-08T12:37:02.183Z,99070
2018-02-08T12:39:32.957Z,99063
2018-02-08T12:42:02.750Z,99057
2018-02-08T12:44:32.498Z,99054
2018-02-08T12:47:02.347Z,99059
2018-02-08T12:49:32.091Z,99049
2018-02-08T12:52:01.854Z,99047
2018-02-08T12:54:31.584Z,99041
2018-02-08T12:57:01.289Z,99044
2018-02-08T12:59:31.115Z,99057
2018-02-08T13:02:00.853Z,99063
2018-02-08T13:04:30.692Z,99061
2018-02-08T13:07:03.950Z,99065
2018-02-08T13:09:33.733Z,99068
2018-02-08T13:12:03.559Z,99072
2018-02-08T13:14:33.296Z,99068
2018-02-08T13:17:03.024Z,99076
2018-02-08T13:19:32.723Z,99077
2018-02-08T13:22:02.507Z,99081
2018-02-08T13:24:32.329Z,99080
2018-02-08T13:27:02.080Z,99082
2018-02-08T13:29:31.928Z,99080
2018-02-08T13:32:01.711Z,99076
2018-02-08T13:34:31.463Z,99068
2018-02-08T13:37:01.234Z,99074
2018-02-08T13:39:34.596Z,99069
2018-02-08T13:42:13.137Z,99067
2018-02-08T13:44:42.873Z,99067
2018-02-08T13:47:18.277Z,99072
2018-02-08T13:50:02.936Z,99073
2018-02-08T13:52:38.358Z,99073
2018-02-08T13:55:12.954Z,99071
2018-02-08T13:57:45.754Z,99062
2018-02-08T14:00:19.482Z,99063
2018-02-08T14:02:49.326Z,99063
2018-02-08T14:05:19.071Z,99058
2018-02-08T14:07:48.907Z,99058
2018-02-08T14:10:18.676Z,99067
2018-02-08T14:12:48.439Z,99074
2018-02-08T14:15:18.156Z,99069
2018-02-08T14:17:47.897Z,99078
2018-02-08T14:20:17.708Z,99079
2018-02-08T14:22:47.503Z,99078
2018-02-08T14:25:17.278Z,99080
2018-02-08T14:27:47.045Z,99086
2018-02-08T14:30:16.821Z,99086
2018-02-08T14:32:46.593Z,99081
2018-02-08T14:35:16.291Z,99072
2018-02-08T14:37:46.029Z,99071
2018-02-08T14:40:15.866Z,99082
2018-02-08T14:42:45.671Z,99075
2018-02-08T14:45:15.401Z,99085
2018-02-08T14:47:45.288Z,99083
2018-02-08T14:50:15.030Z,99091
2018-02-08T14:52:44.899Z,99084
2018-02-08T14:55:14.617Z,99083
2018-02-08T14:57:44.367Z,99084
2018-02-08T15:00:14.148Z,99092
2018-02-08T15:02:43.902Z,99092
2018-02-08T15:05:13.757Z,99093
2018-02-08T15:07:43.568Z,99098
2018-02-08T15:10:13.384Z,99104
2018-02-08T15:12:43.187Z,99101
2018-02-08T15:15:12.930Z,99111
2018-02-08T15:17:42.672Z,99116
2018-02-08T15:20:12.392Z,99121
2018-02-08T15:22:42.305Z,99121
2018-02-08T15:25:12.052Z,99123
2018-02-08T15:27:41.819Z,99117
2018-02-08T15:30:11.541Z,99122
2018-02-08T15:32:41.293Z,99125
2018-02-08T15:35:11.006Z,99121
2018-02-08T15:37:40.784Z,99123
2018-02-08T15:40:10.505Z,99124
2018-02-08T15:42:40.259Z,99125
2018-02-08T15:45:10.011Z,99128
2018-02-08T15:47:39.743Z,99136
2018-02-08T15:50:09.590Z,99139
2018-02-08T15:52:39.477Z,99135
2018-02-08T15:55:09.255Z,99137
2018-02-08T15:57:39.381Z,99138
2018-02-08T16:00:09.209Z,99137
2018-02-08T16:02:39.014Z,99141
2018-02-08T16:05:08.843Z,99147
2018-02-08T16:07:38.832Z,99153
2018-02-08T16:10:08.591Z,99162
2018-02-08T16:12:38.426Z,99164
2018-02-08T16:15:08.127Z,99173
2018-02-08T16:17:37.896Z,99173
2018-02-08T16:20:07.643Z,99172
2018-02-08T16:22:37.430Z,99176
2018-02-08T16:25:07.266Z,99188
2018-02-08T16:27:37.073Z,99193
2018-02-08T16:30:06.871Z,99203
2018-02-08T16:32:36.759Z,99210
2018-02-08T16:35:06.530Z,99216
2018-02-08T16:37:36.365Z,99224
2018-02-08T16:40:06.115Z,99226
2018-02-08T16:42:36.000Z,99227
2018-02-08T16:45:05.719Z,99233
2018-02-08T16:47:35.488Z,99231
2018-02-08T16:50:05.275Z,99231
2018-02-08T16:52:35.019Z,99243
2018-02-08T16:55:04.711Z,99245
2018-02-08T16:57:34.434Z,99251
2018-02-08T17:00:04.188Z,99251
2018-02-08T17:02:33.922Z,99262
2018-02-08T17:05:03.682Z,99249
2018-02-08T17:07:33.478Z,99252
2018-02-08T17:10:03.341Z,99257
2018-02-08T17:12:33.068Z,99265
2018-02-08T17:15:02.843Z,99272
2018-02-08T17:17:32.664Z,99282
2018-02-08T17:20:02.476Z,99274
2018-02-08T17:22:32.229Z,99278
2018-02-08T17:25:01.922Z,99280
2018-02-08T17:27:31.733Z,99278
2018-02-08T17:30:01.547Z,99280
2018-02-08T17:32:31.300Z,99272
2018-02-08T17:35:01.046Z,99266
2018-02-08T17:37:30.761Z,99268
2018-02-08T17:40:00.517Z,99268
2018-02-08T17:42:30.298Z,99267
2018-02-08T17:45:00.013Z,99272
2018-02-08T17:47:29.815Z,99275
2018-02-08T17:49:59.669Z,99273
2018-02-08T17:52:30.233Z,99269
2018-02-08T17:55:01.127Z,99274
2018-02-08T17:57:31.304Z,99270
2018-02-08T18:00:01.633Z,99269
2018-02-08T18:02:32.093Z,99272
2018-02-08T18:05:02.373Z,99273
2018-02-08T18:07:32.721Z,99274
2018-02-08T18:10:03.185Z,99288
2018-02-08T18:12:33.443Z,99293
2018-02-08T18:15:03.803Z,99295
2018-02-08T18:17:33.793Z,99294
2018-02-08T18:20:04.934Z,99294
2018-02-08T18:22:35.309Z,99303
2018-02-08T18:25:05.461Z,99306
2018-02-08T18:27:35.740Z,99303
2018-02-08T18:30:05.992Z,99300
2018-02-08T18:32:36.608Z,99290
2018-02-08T18:35:06.319Z,99287
2018-02-08T18:37:36.080Z,99289
2018-02-08T18:40:06.762Z,99287
2018-02-08T18:42:36.765Z,99285
2018-02-08T18:45:06.581Z,99280
2018-02-08T18:47:36.294Z,99283
2018-02-08T18:50:06.102Z,99291
2018-02-08T18:52:36.012Z,99300
2018-02-08T18:55:05.774Z,99298
2018-02-08T18:57:35.511Z,99310
2018-02-08T19:00:05.319Z,99309
2018-02-08T19:02:35.191Z,99310
2018-02-08T19:05:04.966Z,99310
2018-02-08T19:07:34.830Z,99312
2018-02-08T19:10:04.614Z,99310
2018-02-08T19:12:34.580Z,99301
2018-02-08T19:15:04.403Z,99300
2018-02-08T19:17:34.248Z,99304
2018-02-08T19:20:04.252Z,99314
2018-02-08T19:22:34.015Z,99313
2018-02-08T19:25:03.786Z,99314
2018-02-08T19:27:33.605Z,99319
2018-02-08T19:30:03.450Z,99330
2018-02-08T19:32:33.329Z,99326
2018-02-08T19:35:03.031Z,99328
2018-02-08T19:37:32.713Z,99326
2018-02-08T19:40:02.398Z,99325
2018-02-08T19:42:32.219Z,99335
2018-02-08T19:45:02.228Z,99341
2018-02-08T19:47:32.023Z,99342
2018-02-08T19:50:01.749Z,99335
2018-02-08T19:52:31.574Z,99342
2018-02-08T19:55:01.284Z,99344
2018-02-08T19:57:31.054Z,99346
2018-02-08T20:00:00.841Z,99346
2018-02-08T20:02:30.565Z,99349
2018-02-08T20:05:00.310Z,99351
2018-02-08T20:07:30.764Z,99347
2018-02-08T20:10:00.567Z,99347
2018-02-08T20:12:30.326Z,99347
2018-02-08T20:15:00.942Z,99347
2018-02-08T20:17:30.662Z,99348
2018-02-08T20:20:00.447Z,99347
2018-02-08T20:22:30.220Z,99345
2018-02-08T20:24:59.980Z,99349
2018-02-08T20:27:29.689Z,99359
2018-02-08T20:29:59.399Z,99365
2018-02-08T20:32:29.150Z,99367
2018-02-08T20:34:58.898Z,99365
2018-02-08T20:37:28.627Z,99363
2018-02-08T20:39:59.399Z,99364
2018-02-08T20:42:35.636Z,99365
2018-02-08T20:45:05.454Z,99377
2018-02-08T20:47:35.752Z,99381
2018-02-08T20:50:05.971Z,99390
2018-02-08T20:52:36.596Z,99403
2018-02-08T20:55:06.982Z,99409
2018-02-08T20:57:37.794Z,99412
2018-02-08T21:00:08.324Z,99414
2018-02-08T21:02:38.976Z,99414
2018-02-08T21:05:09.891Z,99422
2018-02-08T21:07:40.625Z,99422
2018-02-08T21:10:11.067Z,99416
2018-02-08T21:12:41.758Z,99405
2018-02-08T21:15:12.350Z,99400
2018-02-08T21:17:42.639Z,99399
2018-02-08T21:20:13.419Z,99396
2018-02-08T21:22:43.832Z,99399
2018-02-08T21:25:14.147Z,99396
2018-02-08T21:27:44.814Z,99400
2018-02-08T21:30:15.151Z,99397
2018-02-08T21:32:44.840Z,99384
2018-02-08T21:35:15.452Z,99383
2018-02-08T21:37:46.110Z,99384
2018-02-08T21:40:16.557Z,99387
2018-02-08T21:42:47.214Z,99391
2018-02-08T21:45:17.543Z,99385
2018-02-08T21:47:48.176Z,99402
2018-02-08T21:50:18.692Z,99403
2018-02-08T21:52:49.176Z,99404
2018-02-08T21:55:19.655Z,99415
2018-02-08T21:57:49.915Z,99417
2018-02-08T22:00:20.191Z,99409
2018-02-08T22:02:50.542Z,99412
2018-02-08T22:05:21.538Z,99414
2018-02-08T22:07:52.088Z,99413
2018-02-08T22:10:22.491Z,99413
2018-02-08T22:12:52.518Z,99416
2018-02-08T22:15:23.286Z,99419
2018-02-08T22:17:53.910Z,99415
2018-02-08T22:20:24.646Z,99415
2018-02-08T22:22:55.147Z,99413
2018-02-08T22:25:25.525Z,99397
2018-02-08T22:27:55.787Z,99393
2018-02-08T22:30:26.515Z,99391
2018-02-08T22:32:56.954Z,99398
2018-02-08T22:35:27.354Z,99401
2018-02-08T22:37:57.680Z,99398
2018-02-08T22:40:28.133Z,99396
2018-02-08T22:42:58.550Z,99396
2018-02-08T22:45:28.881Z,99394
2018-02-08T22:47:59.187Z,99392
2018-02-08T22:50:29.921Z,99395
2018-02-08T22:53:00.586Z,99392
2018-02-08T22:55:30.936Z,99390
2018-02-08T22:58:01.408Z,99397
2018-02-08T23:00:31.990Z,99395
2018-02-08T23:03:02.824Z,99395
2018-02-08T23:05:33.381Z,99397
2018-02-08T23:08:04.022Z,99407
2018-02-08T23:10:34.655Z,99403
2018-02-08T23:13:05.621Z,99408
2018-02-08T23:15:35.859Z,99407
2018-02-08T23:18:06.137Z,99405
2018-02-08T23:20:35.935Z,99400
2018-02-08T23:23:06.209Z,99396
2018-02-08T23:25:36.784Z,99399
2018-02-08T23:28:07.351Z,99403
2018-02-08T23:30:37.332Z,99399
2018-02-08T23:33:07.131Z,99399
2018-02-08T23:35:37.561Z,99403
2018-02-08T23:38:07.874Z,99403
2018-02-08T23:40:38.601Z,99424
2018-02-08T23:43:09.204Z,99423
2018-02-08T23:45:39.322Z,99423
2018-02-08T23:48:09.289Z,99422
2018-02-08T23:50:40.074Z,99415
2018-02-08T23:53:10.539Z,99422
2018-02-08T23:55:40.996Z,99428
2018-02-08T23:58:11.321Z,99441
